createdAt,value
2023-03-12T00:01:20.132Z,-1.22
2023-03-12T00:03:49.830Z,-0.91
2023-03-12T00:06:19.476Z,-0.57
2023-03-12T00:08:48.575Z,-0.62
2023-03-12T00:11:21.121Z,-0.72
2023-03-12T00:13:51.827Z,-0.71
2023-03-12T00:16:21.096Z,-0.75
2023-03-12T00:18:51.052Z,-0.31
2023-03-12T00:21:20.541Z,-0.52
2023-03-12T00:23:50.189Z,-0.65
2023-03-12T00:26:21.435Z,-0.71
2023-03-12T00:28:51.285Z,-0.50
2023-03-12T00:31:22.210Z,-0.38
2023-03-12T00:33:51.476Z,-0.41
2023-03-12T00:36:21.667Z,-0.32
2023-03-12T00:38:50.817Z,-0.55
2023-03-12T00:41:21.126Z,-0.44
2023-03-12T00:43:49.775Z,-0.58
2023-03-12T00:46:18.983Z,-0.49
2023-03-12T00:48:47.934Z,-0.38
2023-03-12T00:51:16.926Z,-0.40
2023-03-12T00:53:45.874Z,-0.84
2023-03-12T00:56:14.729Z,-0.67
2023-03-12T00:58:44.799Z,-0.77
2023-03-12T01:01:13.955Z,-0.65
2023-03-12T01:03:43.231Z,-0.57
2023-03-12T01:06:12.323Z,-0.74
2023-03-12T01:08:41.264Z,-0.47
2023-03-12T01:11:14.662Z,-0.52
2023-03-12T01:13:45.119Z,-0.67
2023-03-12T01:16:14.313Z,-0.99
2023-03-12T01:18:43.151Z,-0.82
2023-03-12T01:21:12.302Z,-1.00
2023-03-12T01:23:41.180Z,-0.77
2023-03-12T01:26:10.158Z,-0.66
2023-03-12T01:28:38.715Z,-0.50
2023-03-12T01:31:09.979Z,-0.23
2023-03-12T01:33:39.363Z,0.05
2023-03-12T01:36:18.846Z,0.05
2023-03-12T01:38:47.881Z,-0.13
2023-03-12T01:41:16.798Z,-0.08
2023-03-12T01:43:46.460Z,-0.12
2023-03-12T01:46:24.251Z,-0.14
2023-03-12T01:48:57.770Z,0.15
2023-03-12T01:51:29.455Z,-0.22
2023-03-12T01:54:01.331Z,-0.07
2023-03-12T01:56:34.436Z,-0.07
2023-03-12T01:59:07.006Z,0.13
2023-03-12T02:01:37.104Z,-0.35
2023-03-12T02:04:06.944Z,0.38
2023-03-12T02:06:39.592Z,0.32
2023-03-12T02:09:09.490Z,0.17
2023-03-12T02:11:38.372Z,0.07
2023-03-12T02:14:07.312Z,-0.06
2023-03-12T02:16:37.384Z,0.15
2023-03-12T02:19:12.128Z,0.23
2023-03-12T02:21:41.241Z,0.10
2023-03-12T02:24:17.209Z,0.21
2023-03-12T02:26:48.563Z,-0.17
2023-03-12T02:29:18.020Z,-0.42
2023-03-12T02:31:50.623Z,0.02
2023-03-12T02:34:19.594Z,0.13
2023-03-12T02:36:49.924Z,0.10
2023-03-12T02:39:19.687Z,0.75
2023-03-12T02:41:53.874Z,0.58
2023-03-12T02:44:24.985Z,0.37
2023-03-12T02:46:56.304Z,0.11
2023-03-12T02:49:28.520Z,0.13
2023-03-12T02:51:57.840Z,-0.19
2023-03-12T02:54:27.180Z,0.23
2023-03-12T02:56:57.743Z,0.08
2023-03-12T02:59:27.858Z,0.22
2023-03-12T03:02:00.655Z,0.23
2023-03-12T03:04:30.839Z,-0.19
2023-03-12T03:06:59.914Z,-0.23
2023-03-12T03:09:28.964Z,-0.34
2023-03-12T03:11:59.423Z,0.06
2023-03-12T03:14:30.399Z,0.09
2023-03-12T03:16:59.389Z,0.27
2023-03-12T03:19:28.668Z,-0.09
2023-03-12T03:21:57.592Z,-0.32
2023-03-12T03:24:26.465Z,-0.11
2023-03-12T03:26:55.761Z,0.30
2023-03-12T03:29:26.551Z,0.58
2023-03-12T03:31:55.084Z,-0.26
2023-03-12T03:34:24.025Z,-0.11
2023-03-12T03:36:53.195Z,-0.23
2023-03-12T03:39:22.322Z,-0.00
2023-03-12T03:41:52.226Z,0.09
2023-03-12T03:44:24.602Z,-0.36
2023-03-12T03:46:55.877Z,-0.44
2023-03-12T03:49:25.362Z,-0.75
2023-03-12T03:51:54.249Z,-0.47
2023-03-12T03:54:41.666Z,-0.49
2023-03-12T03:57:10.783Z,-0.61
2023-03-12T03:59:40.942Z,-0.31
2023-03-12T04:02:11.668Z,-0.14
2023-03-12T04:04:41.075Z,0.18
2023-03-12T04:07:10.733Z,0.04
2023-03-12T04:09:40.297Z,-0.21
2023-03-12T04:12:09.474Z,0.19
2023-03-12T04:14:43.956Z,0.20
2023-03-12T04:17:14.692Z,0.16
2023-03-12T04:19:55.826Z,0.29
2023-03-12T04:22:25.077Z,0.02
2023-03-12T04:24:53.954Z,-0.04
2023-03-12T04:27:22.947Z,0.35
2023-03-12T04:29:52.008Z,0.32
2023-03-12T04:32:22.638Z,0.55
2023-03-12T04:34:51.451Z,0.88
2023-03-12T04:37:20.527Z,0.34
2023-03-12T04:39:49.535Z,-0.08
2023-03-12T04:42:18.635Z,0.45
2023-03-12T04:44:52.641Z,0.81
2023-03-12T04:47:23.253Z,0.82
2023-03-12T04:49:51.860Z,0.58
2023-03-12T04:52:20.876Z,0.97
2023-03-12T04:54:49.961Z,0.88
2023-03-12T04:57:18.862Z,0.71
2023-03-12T04:59:48.086Z,0.72
2023-03-12T05:02:17.070Z,0.79
2023-03-12T05:04:47.142Z,0.68
2023-03-12T05:07:16.224Z,0.80
2023-03-12T05:09:46.482Z,0.19
2023-03-12T05:12:16.262Z,0.16
2023-03-12T05:14:45.504Z,0.39
2023-03-12T05:17:15.054Z,0.35
2023-03-12T05:19:43.694Z,0.79
2023-03-12T05:22:15.908Z,0.65
2023-03-12T05:24:45.064Z,1.05
2023-03-12T05:27:14.183Z,0.67
2023-03-12T05:29:43.682Z,0.84
2023-03-12T05:32:12.713Z,0.67
2023-03-12T05:34:41.498Z,0.56
2023-03-12T05:37:10.604Z,0.55
2023-03-12T05:39:46.882Z,0.78
2023-03-12T05:42:18.177Z,0.97
2023-03-12T05:44:47.424Z,0.42
2023-03-12T05:47:20.008Z,0.49
2023-03-12T05:49:49.052Z,0.63
2023-03-12T05:52:18.348Z,0.71
2023-03-12T05:54:48.619Z,0.19
2023-03-12T05:57:17.621Z,0.70
2023-03-12T05:59:46.756Z,0.59
2023-03-12T06:02:16.514Z,0.74
2023-03-12T06:04:46.716Z,0.91
2023-03-12T06:07:15.987Z,0.95
2023-03-12T06:09:45.268Z,0.42
2023-03-12T06:12:17.202Z,1.24
2023-03-12T06:14:47.078Z,0.58
2023-03-12T06:17:16.594Z,0.98
2023-03-12T06:19:45.355Z,0.40
2023-03-12T06:22:14.367Z,0.18
2023-03-12T06:24:47.384Z,0.18
2023-03-12T06:27:19.482Z,0.58
2023-03-12T06:29:48.690Z,0.39
2023-03-12T06:32:18.517Z,0.38
2023-03-12T06:34:47.328Z,0.43
2023-03-12T06:37:16.549Z,0.54
2023-03-12T06:39:46.878Z,0.69
2023-03-12T06:42:15.588Z,0.84
2023-03-12T06:44:46.124Z,0.49
2023-03-12T06:47:17.599Z,0.49
2023-03-12T06:49:46.847Z,0.33
2023-03-12T06:52:15.818Z,0.52
2023-03-12T06:54:45.081Z,0.45
2023-03-12T06:57:13.929Z,0.66
2023-03-12T06:59:43.193Z,1.28
2023-03-12T07:02:14.070Z,0.87
2023-03-12T07:04:42.807Z,0.48
2023-03-12T07:07:12.872Z,0.47
2023-03-12T07:09:41.860Z,0.17
2023-03-12T07:12:11.518Z,0.28
2023-03-12T07:14:40.641Z,0.23
2023-03-12T07:17:09.530Z,0.38
2023-03-12T07:19:39.607Z,1.17
2023-03-12T07:22:08.469Z,0.98
2023-03-12T07:24:37.402Z,1.27
2023-03-12T07:27:06.311Z,1.58
2023-03-12T07:29:35.245Z,1.24
2023-03-12T07:32:04.178Z,1.21
2023-03-12T07:34:33.088Z,2.24
2023-03-12T07:37:04.273Z,2.80
2023-03-12T07:39:33.472Z,2.60
2023-03-12T07:42:02.493Z,3.33
2023-03-12T07:44:33.796Z,4.10
2023-03-12T07:47:12.954Z,3.73
2023-03-12T07:49:49.626Z,3.15
2023-03-12T07:52:20.446Z,2.47
2023-03-12T07:54:49.506Z,1.72
2023-03-12T07:57:19.884Z,2.50
2023-03-12T07:59:48.624Z,3.66
2023-03-12T08:02:18.008Z,4.38
2023-03-12T08:04:46.930Z,5.25
2023-03-12T08:07:16.354Z,5.84
2023-03-12T08:09:49.619Z,6.78
2023-03-12T08:12:18.633Z,6.49
2023-03-12T08:14:47.806Z,5.36
2023-03-12T08:17:17.236Z,4.27
2023-03-12T08:19:45.857Z,3.36
2023-03-12T08:22:14.870Z,1.89
2023-03-12T08:24:44.208Z,2.37
2023-03-12T08:27:14.823Z,3.37
2023-03-12T08:29:43.896Z,3.17
2023-03-12T08:32:14.247Z,2.86
2023-03-12T08:34:42.901Z,1.95
2023-03-12T08:37:11.912Z,1.64
2023-03-12T08:39:40.892Z,2.01
2023-03-12T08:42:09.849Z,3.79
2023-03-12T08:44:41.400Z,3.52
2023-03-12T08:47:10.319Z,2.40
2023-03-12T08:49:39.147Z,1.38
2023-03-12T08:52:08.295Z,3.39
2023-03-12T08:54:37.121Z,5.19
2023-03-12T08:57:06.026Z,5.25
2023-03-12T08:59:34.943Z,6.72
2023-03-12T09:02:05.381Z,6.34
2023-03-12T09:04:34.087Z,3.41
2023-03-12T09:08:43.031Z,3.23
2023-03-12T09:11:13.006Z,4.62
2023-03-12T09:14:05.121Z,3.97
2023-03-12T09:16:31.529Z,2.09
2023-03-12T09:19:00.442Z,2.16
2023-03-12T09:21:29.800Z,1.97
2023-03-12T09:24:00.352Z,1.79
2023-03-12T09:26:29.340Z,3.30
2023-03-12T09:28:59.296Z,6.27
2023-03-12T09:31:28.066Z,8.55
2023-03-12T09:33:56.970Z,6.66
2023-03-12T09:36:26.196Z,6.62
2023-03-12T09:38:56.018Z,5.95
2023-03-12T09:41:28.271Z,8.16
2023-03-12T09:43:59.288Z,7.02
2023-03-12T09:46:32.755Z,6.46
2023-03-12T09:49:04.781Z,4.79
2023-03-12T09:51:35.618Z,4.59
2023-03-12T09:54:06.447Z,4.67
2023-03-12T09:56:38.276Z,3.65
2023-03-12T09:59:11.986Z,3.59
2023-03-12T10:01:43.772Z,3.11
2023-03-12T10:04:21.915Z,3.75
2023-03-12T10:06:54.239Z,3.10
2023-03-12T10:09:39.586Z,2.50
2023-03-12T10:12:18.920Z,2.09
2023-03-12T10:14:58.835Z,2.08
2023-03-12T10:17:41.506Z,2.04
2023-03-12T10:20:35.958Z,2.17
2023-03-12T10:23:09.822Z,2.46
2023-03-12T10:25:43.865Z,2.91
2023-03-12T10:28:17.502Z,4.00
2023-03-12T10:30:51.950Z,4.75
2023-03-12T10:33:21.686Z,5.04
2023-03-12T10:35:51.883Z,4.36
2023-03-12T10:38:21.725Z,4.05
2023-03-12T10:40:50.586Z,2.99
2023-03-12T10:43:21.235Z,2.46
2023-03-12T10:45:58.608Z,2.78
2023-03-12T10:48:27.817Z,2.87
2023-03-12T10:51:04.835Z,2.56
2023-03-12T10:53:35.547Z,2.47
2023-03-12T10:56:07.608Z,2.79
2023-03-12T10:58:39.759Z,2.74
2023-03-12T11:01:18.262Z,2.86
2023-03-12T11:03:47.669Z,3.71
2023-03-12T11:06:22.995Z,5.69
2023-03-12T11:09:16.278Z,6.01
2023-03-12T11:11:51.208Z,5.41
2023-03-12T11:14:23.820Z,5.56
2023-03-12T11:16:53.579Z,4.47
2023-03-12T11:19:30.172Z,3.70
2023-03-12T11:22:01.017Z,4.32
2023-03-12T11:24:30.224Z,4.10
2023-03-12T11:27:02.317Z,2.92
2023-03-12T11:29:36.828Z,3.72
2023-03-12T11:32:08.326Z,5.55
2023-03-12T11:34:39.305Z,7.00
2023-03-12T11:37:13.461Z,6.49
2023-03-12T11:40:10.079Z,4.17
2023-03-12T11:42:51.477Z,4.59
2023-03-12T11:45:27.327Z,5.46
2023-03-12T11:48:03.594Z,4.53
2023-03-12T11:50:42.770Z,4.48
2023-03-12T11:53:23.057Z,4.35
2023-03-12T11:56:03.710Z,4.15
2023-03-12T11:58:44.628Z,5.01
2023-03-12T12:01:21.552Z,6.72
2023-03-12T12:04:06.036Z,7.79
2023-03-12T12:06:46.946Z,9.68
2023-03-12T12:09:23.336Z,10.37
2023-03-12T12:12:05.766Z,7.41
2023-03-12T12:14:46.690Z,5.86
2023-03-12T12:17:24.648Z,4.67
2023-03-12T12:20:09.223Z,5.12
2023-03-12T12:22:47.626Z,4.96
2023-03-12T12:25:29.537Z,7.11
2023-03-12T12:28:14.227Z,7.66
2023-03-12T12:30:51.947Z,5.88
2023-03-12T12:33:31.843Z,5.53
2023-03-12T12:36:01.794Z,4.97
2023-03-12T12:38:34.871Z,5.75
2023-03-12T12:41:09.566Z,6.90
2023-03-12T12:43:39.860Z,7.78
2023-03-12T12:46:11.925Z,4.99
2023-03-12T12:48:45.014Z,4.37
2023-03-12T12:51:14.591Z,3.73
2023-03-12T12:53:49.087Z,4.27
2023-03-12T12:56:22.183Z,7.84
2023-03-12T12:59:04.145Z,9.12
2023-03-12T13:01:35.676Z,5.96
2023-03-12T13:04:08.416Z,4.16
2023-03-12T13:07:04.694Z,3.66
2023-03-12T13:09:40.053Z,6.68
2023-03-12T13:12:14.974Z,8.04
2023-03-12T13:14:45.254Z,7.61
2023-03-12T13:17:27.374Z,7.33
2023-03-12T13:20:02.230Z,8.25
2023-03-12T13:22:43.114Z,7.97
2023-03-12T13:25:23.420Z,6.29
2023-03-12T13:27:58.692Z,4.25
2023-03-12T13:30:50.241Z,4.07
2023-03-12T13:33:21.861Z,4.34
2023-03-12T13:36:11.045Z,4.11
2023-03-12T13:38:41.142Z,5.14
2023-03-12T13:41:09.900Z,4.70
2023-03-12T13:43:54.642Z,5.80
2023-03-12T13:46:40.067Z,6.59
2023-03-12T13:49:14.862Z,6.36
2023-03-12T13:52:03.984Z,5.59
2023-03-12T13:54:35.037Z,5.79
2023-03-12T13:57:11.259Z,5.29
2023-03-12T13:59:45.407Z,5.01
2023-03-12T14:02:21.310Z,4.88
2023-03-12T14:04:50.349Z,4.48
2023-03-12T14:07:49.959Z,4.60
2023-03-12T14:10:28.029Z,6.21
2023-03-12T14:13:03.313Z,6.63
2023-03-12T14:15:39.858Z,5.18
2023-03-12T14:18:16.147Z,4.84
2023-03-12T14:20:52.004Z,5.34
2023-03-12T14:23:23.036Z,5.89
2023-03-12T14:25:53.532Z,6.12
2023-03-12T14:28:24.221Z,6.42
2023-03-12T14:30:58.758Z,6.08
2023-03-12T14:33:30.037Z,5.24
2023-03-12T14:36:03.721Z,4.55
2023-03-12T14:38:36.350Z,4.39
2023-03-12T14:41:13.401Z,4.11
2023-03-12T14:43:43.016Z,3.76
2023-03-12T14:46:16.831Z,3.86
2023-03-12T14:48:49.371Z,4.83
2023-03-12T14:51:24.186Z,4.48
2023-03-12T14:53:55.233Z,4.11
2023-03-12T14:56:29.533Z,4.33
2023-03-12T14:58:58.913Z,4.77
2023-03-12T15:01:29.466Z,4.32
2023-03-12T15:04:01.456Z,4.64
2023-03-12T15:06:31.898Z,4.56
2023-03-12T15:09:04.425Z,3.87
2023-03-12T15:11:34.624Z,3.65
2023-03-12T15:14:03.937Z,3.59
2023-03-12T15:16:32.518Z,3.58
2023-03-12T15:19:03.886Z,4.46
2023-03-12T15:21:34.615Z,5.13
2023-03-12T15:24:05.706Z,4.52
2023-03-12T15:26:38.349Z,4.46
2023-03-12T15:29:27.991Z,4.71
2023-03-12T15:31:58.467Z,4.68
2023-03-12T15:34:33.340Z,4.33
2023-03-12T15:37:04.657Z,4.12
2023-03-12T15:39:39.240Z,4.12
2023-03-12T15:42:10.712Z,4.12
2023-03-12T15:44:46.130Z,3.84
2023-03-12T15:47:16.949Z,3.96
2023-03-12T15:49:46.001Z,4.37
2023-03-12T15:52:29.935Z,3.94
2023-03-12T15:55:17.098Z,3.94
2023-03-12T15:57:47.364Z,3.94
2023-03-12T16:00:31.010Z,3.67
2023-03-12T16:03:01.367Z,3.76
2023-03-12T16:05:33.299Z,3.36
2023-03-12T16:08:03.270Z,3.37
2023-03-12T16:10:36.775Z,3.67
2023-03-12T16:13:05.907Z,3.72
2023-03-12T16:15:37.713Z,3.62
2023-03-12T16:18:07.174Z,3.43
2023-03-12T16:20:36.107Z,3.24
2023-03-12T16:23:05.365Z,3.24
2023-03-12T16:25:35.784Z,3.67
2023-03-12T16:28:06.030Z,3.25
2023-03-12T16:30:36.812Z,3.09
2023-03-12T16:33:09.170Z,3.35
2023-03-12T16:35:38.650Z,3.70
2023-03-12T16:38:10.115Z,3.86
2023-03-12T16:40:42.266Z,3.88
2023-03-12T16:43:16.246Z,3.75
2023-03-12T16:45:47.099Z,3.60
2023-03-12T16:48:18.549Z,3.66
2023-03-12T16:50:49.941Z,3.49
2023-03-12T16:53:19.131Z,3.53
2023-03-12T16:55:51.966Z,3.66
2023-03-12T16:58:21.933Z,3.46
2023-03-12T17:00:51.767Z,3.61
2023-03-12T17:03:24.261Z,3.50
2023-03-12T17:05:53.353Z,3.71
2023-03-12T17:08:24.706Z,3.66
2023-03-12T17:10:55.226Z,3.43
2023-03-12T17:13:25.912Z,3.28
2023-03-12T17:15:55.683Z,3.40
2023-03-12T17:18:24.656Z,3.06
2023-03-12T17:20:54.058Z,3.38
2023-03-12T17:23:23.599Z,3.35
2023-03-12T17:25:52.202Z,3.01
2023-03-12T17:28:22.435Z,3.31
2023-03-12T17:30:51.693Z,3.45
2023-03-12T17:33:21.186Z,3.38
2023-03-12T17:35:58.028Z,3.17
2023-03-12T17:38:27.156Z,3.22
2023-03-12T17:40:55.752Z,3.21
2023-03-12T17:43:26.168Z,3.27
2023-03-12T17:45:55.104Z,2.87
2023-03-12T17:48:24.892Z,3.27
2023-03-12T17:50:54.606Z,3.50
2023-03-12T17:53:23.615Z,3.60
2023-03-12T17:55:52.091Z,3.22
2023-03-12T17:58:21.031Z,3.60
2023-03-12T18:00:52.724Z,3.58
2023-03-12T18:03:21.843Z,3.27
2023-03-12T18:05:51.286Z,3.43
2023-03-12T18:08:20.292Z,3.15
2023-03-12T18:10:49.546Z,3.30
2023-03-12T18:13:18.616Z,3.16
2023-03-12T18:15:53.670Z,3.06
2023-03-12T18:18:22.708Z,3.23
2023-03-12T18:20:51.898Z,3.22
2023-03-12T18:23:21.190Z,3.16
2023-03-12T18:25:49.634Z,3.06
2023-03-12T18:28:18.794Z,3.07
2023-03-12T18:30:47.976Z,2.87
2023-03-12T18:33:18.366Z,3.19
2023-03-12T18:35:48.846Z,2.90
2023-03-12T18:38:17.854Z,3.19
2023-03-12T18:40:46.295Z,2.87
2023-03-12T18:43:15.276Z,2.98
2023-03-12T18:45:44.640Z,2.70
2023-03-12T18:48:13.497Z,2.56
2023-03-12T18:50:44.101Z,2.37
2023-03-12T18:53:13.161Z,2.69
2023-03-12T18:55:41.637Z,2.75
2023-03-12T18:58:10.582Z,2.87
2023-03-12T19:00:40.473Z,2.82
2023-03-12T19:03:10.661Z,2.57
2023-03-12T19:05:39.922Z,2.53
2023-03-12T19:08:10.206Z,2.85
2023-03-12T19:10:39.771Z,2.75
2023-03-12T19:13:08.742Z,2.57
2023-03-12T19:15:40.056Z,2.93
2023-03-12T19:18:08.984Z,3.09
2023-03-12T19:20:37.949Z,2.80
2023-03-12T19:23:07.006Z,2.94
2023-03-12T19:25:36.926Z,2.78
2023-03-12T19:28:05.681Z,3.22
2023-03-12T19:30:34.887Z,3.03
2023-03-12T19:33:03.902Z,3.11
2023-03-12T19:35:33.020Z,3.30
2023-03-12T19:38:02.168Z,3.07
2023-03-12T19:40:30.854Z,2.99
2023-03-12T19:43:01.476Z,3.18
2023-03-12T19:45:30.858Z,3.02
2023-03-12T19:47:59.900Z,3.08
2023-03-12T19:50:28.761Z,3.07
2023-03-12T19:52:57.343Z,2.93
2023-03-12T19:55:26.561Z,3.01
2023-03-12T19:57:55.746Z,3.23
2023-03-12T20:00:26.510Z,3.29
2023-03-12T20:02:55.751Z,2.85
2023-03-12T20:05:24.743Z,3.11
2023-03-12T20:07:53.424Z,2.80
2023-03-12T20:10:22.704Z,2.82
2023-03-12T20:12:51.729Z,2.77
2023-03-12T20:15:20.774Z,2.62
2023-03-12T20:17:54.751Z,2.49
2023-03-12T20:20:24.087Z,2.49
2023-03-12T20:22:52.892Z,1.98
2023-03-12T20:25:21.930Z,1.94
2023-03-12T20:27:50.983Z,1.85
2023-03-12T20:30:20.508Z,1.85
2023-03-12T20:32:51.048Z,2.01
2023-03-12T20:35:20.373Z,1.90
2023-03-12T20:37:49.992Z,2.26
2023-03-12T20:40:19.502Z,2.22
2023-03-12T20:42:48.473Z,1.77
2023-03-12T20:45:17.658Z,2.05
2023-03-12T20:47:46.781Z,2.02
2023-03-12T20:50:17.324Z,1.97
2023-03-12T20:52:45.617Z,2.35
2023-03-12T20:55:14.591Z,1.76
2023-03-12T20:57:43.485Z,1.70
2023-03-12T21:00:13.517Z,1.70
2023-03-12T21:03:28.566Z,1.72
2023-03-12T21:06:23.491Z,1.95
2023-03-12T21:08:52.951Z,1.57
2023-03-12T21:11:21.850Z,2.09
2023-03-12T21:13:50.380Z,1.94
2023-03-12T21:16:19.529Z,1.48
2023-03-12T21:18:48.565Z,1.45
2023-03-12T21:21:17.707Z,1.56
2023-03-12T21:23:48.070Z,1.57
2023-03-12T21:26:18.414Z,1.69
2023-03-12T21:28:47.197Z,1.38
2023-03-12T21:31:17.822Z,1.75
2023-03-12T21:33:46.870Z,1.92
2023-03-12T21:36:15.942Z,1.61
2023-03-12T21:38:44.913Z,1.97
2023-03-12T21:41:17.156Z,2.11
2023-03-12T21:43:47.480Z,2.23
2023-03-12T21:46:19.056Z,2.24
2023-03-12T21:48:49.098Z,1.82
2023-03-12T21:51:19.697Z,1.58
2023-03-12T21:53:48.726Z,1.12
2023-03-12T21:56:19.021Z,1.02
2023-03-12T21:58:47.554Z,1.29
2023-03-12T22:01:18.537Z,1.35
2023-03-12T22:03:48.305Z,1.06
2023-03-12T22:06:17.833Z,0.93
2023-03-12T22:08:48.293Z,1.05
2023-03-12T22:11:18.725Z,0.60
2023-03-12T22:13:47.259Z,0.65
2023-03-12T22:16:16.962Z,0.47
2023-03-12T22:18:47.393Z,0.56
2023-03-12T22:21:18.447Z,0.28
2023-03-12T22:23:48.348Z,0.63
2023-03-12T22:26:19.172Z,1.09
2023-03-12T22:28:50.747Z,0.75
2023-03-12T22:31:20.947Z,0.53
2023-03-12T22:33:49.672Z,0.52
2023-03-12T22:36:19.274Z,0.70
2023-03-12T22:38:48.861Z,0.41
2023-03-12T22:41:20.775Z,1.04
2023-03-12T22:43:50.132Z,1.62
2023-03-12T22:46:20.307Z,1.04
2023-03-12T22:48:52.957Z,0.79
2023-03-12T22:51:21.971Z,0.64
2023-03-12T22:53:50.876Z,1.55
2023-03-12T22:56:21.931Z,1.50
2023-03-12T22:58:50.594Z,1.52
2023-03-12T23:01:21.462Z,0.98
2023-03-12T23:03:50.883Z,1.05
2023-03-12T23:06:21.568Z,0.64
2023-03-12T23:08:51.460Z,1.30
2023-03-12T23:11:22.400Z,1.35
2023-03-12T23:13:52.224Z,1.11
2023-03-12T23:16:21.393Z,1.69
2023-03-12T23:18:51.017Z,1.46
2023-03-12T23:21:22.126Z,1.51
2023-03-12T23:23:51.596Z,1.72
2023-03-12T23:26:24.003Z,2.73
2023-03-12T23:28:54.323Z,2.82
2023-03-12T23:31:23.883Z,1.56
2023-03-12T23:33:52.865Z,1.89
2023-03-12T23:36:23.396Z,2.31
2023-03-12T23:38:52.501Z,2.48
2023-03-12T23:41:24.289Z,2.20
2023-03-12T23:43:53.109Z,2.25
2023-03-12T23:46:22.381Z,1.81
2023-03-12T23:48:51.498Z,1.46
2023-03-12T23:51:22.543Z,1.91
2023-03-12T23:53:52.584Z,1.62
2023-03-12T23:56:24.389Z,1.64
2023-03-12T23:58:53.036Z,1.46
